South Lake Tahoe, CA (96150)

8:14 PM PDT on September 02, 2015 (GMT -0700)
North Upper Truckee | | Change Station
CLOSE
Current Station
Personal Weather Station
Location: South Lake Tahoe, CA
Elevation: 6549 ft
Nearby Weather Stations
Active Advisory: Lake Wind Advisory

Elev 6549 ft 38.86 °N, 120.04 °W | Updated 4 seconds ago

Clear
Clear
58.2 °F
Feels Like 58.2 °F
N
2.8
Wind Variable Wind from NNE
Gusts 7.0 mph

Today
High -- | Low -- °F
--% Chance of Precip.
Yesterday
High -- | Low -- °F
Precip. -- in
6:29 AM 7:29 PM
Waning Gibbous, 74% visible
Pressure 29.88 in
Visibility 10.0 miles
Clouds Clear
Dew Point 37 °F
Humidity 45%
Rainfall 0.00 in
Snow Depth Not available.
UV 0 out of 12
Pollen 8.60 out of 12
Air Quality Not available.
Flu Activity Not available.
METAR KTVL 030253Z AUTO 20008KT 10SM CLR 17/02 A3005 RMK AO2 SLP116 T01720017 56003
Pressure 29.88 in
Visibility 10.0 miles
Clouds Clear
Dew Point 37 °F
Humidity 45%
Rainfall 0.00 in
Snow Depth Not available.
UV 0 out of 12
Pollen 8.60 out of 12
Air Quality Not available.
Flu Activity Not available.
METAR KTVL 030253Z AUTO 20008KT 10SM CLR 17/02 A3005 RMK AO2 SLP116 T01720017 56003

10-Day Weather Forecast

×

Almanac

Astronomy

Sep. 02, 2015 Rise Set
Actual Time
Civil Twilight
Nautical Twilight
Astronomical Twilight
Moon
Length of Visible Light
Length of Day
Tomorrow will be .
, % of the Moon is Illuminated

Today's Extremes

State Highs State Lows

Community

WunderPhotos

Upload Photos

1,851,892 photos uploaded!

WunderBlogs® & News

Nearby

Air Quality

  Air Quality AQ Index Pollutant
Not available.

Snow Depth

Station Depth Elevation

Earthquake Activity

City Distance Mag. Time & Date
Minimum magnitude displayed is 2.5.

Coastal Water Temperatures

Place Temperature

Stations

Nearby Weather Stations

Station Location Temp. Windchill Dew Point Humidity Wind Precip. Elev Updated Type
                   
Lake Wind Advisory
Statement as of 3:29 PM PDT on September 02, 2015

... Lake Wind Advisory remains in effect until 9 PM PDT this
evening...

A lake Wind Advisory remains in effect until 9 PM PDT this
evening.

* Winds: southwest 15 to 25 mph with gusts to 35 mph.

* Wave heights: 2 to 4 feet. Highest waves along north and east
shores.

* Small boats will be prone to capsizing and should remain off
lake waters until conditions improve.

Precautionary/preparedness actions...

Check our website at weather.Gov/Reno or listen to NOAA Weather
Radio for updates on this situation.




Http://weather.Gov/Reno